sensor_id;sensor_type;location;lat;lon;timestamp;P1;durP1;ratioP1;P2;durP2;ratioP2
56999;SDS011;42891;50.006;21.964;2023-10-31T00:02:22;7.80;;;3.67;;
56999;SDS011;42891;50.006;21.964;2023-10-31T00:06:22;6.57;;;3.25;;
56999;SDS011;42891;50.006;21.964;2023-10-31T00:10:23;7.83;;;3.50;;
56999;SDS011;42891;50.006;21.964;2023-10-31T00:14:23;7.00;;;3.25;;
56999;SDS011;42891;50.006;21.964;2023-10-31T00:18:23;9.73;;;3.30;;
56999;SDS011;42891;50.006;21.964;2023-10-31T00:22:24;8.30;;;3.40;;
56999;SDS011;42891;50.006;21.964;2023-10-31T00:26:24;6.90;;;3.13;;
56999;SDS011;42891;50.006;21.964;2023-10-31T00:30:24;7.47;;;3.17;;
56999;SDS011;42891;50.006;21.964;2023-10-31T00:34:25;6.03;;;2.93;;
56999;SDS011;42891;50.006;21.964;2023-10-31T00:38:25;8.43;;;3.50;;
56999;SDS011;42891;50.006;21.964;2023-10-31T00:42:26;7.45;;;3.25;;
56999;SDS011;42891;50.006;21.964;2023-10-31T00:46:26;4.97;;;3.20;;
56999;SDS011;42891;50.006;21.964;2023-10-31T00:50:26;4.57;;;3.00;;
56999;SDS011;42891;50.006;21.964;2023-10-31T00:54:26;8.02;;;3.17;;
56999;SDS011;42891;50.006;21.964;2023-10-31T00:58:27;6.50;;;3.00;;
56999;SDS011;42891;50.006;21.964;2023-10-31T01:02:27;7.57;;;3.17;;
56999;SDS011;42891;50.006;21.964;2023-10-31T01:06:27;6.17;;;3.10;;
56999;SDS011;42891;50.006;21.964;2023-10-31T01:10:28;6.13;;;2.87;;
56999;SDS011;42891;50.006;21.964;2023-10-31T01:14:28;8.30;;;3.38;;
56999;SDS011;42891;50.006;21.964;2023-10-31T01:18:28;9.35;;;2.97;;
56999;SDS011;42891;50.006;21.964;2023-10-31T01:22:29;6.13;;;2.67;;
56999;SDS011;42891;50.006;21.964;2023-10-31T01:26:29;6.40;;;2.83;;
56999;SDS011;42891;50.006;21.964;2023-10-31T01:30:29;5.22;;;2.60;;
56999;SDS011;42891;50.006;21.964;2023-10-31T01:34:30;7.85;;;2.80;;
56999;SDS011;42891;50.006;21.964;2023-10-31T01:38:30;8.77;;;2.67;;
56999;SDS011;42891;50.006;21.964;2023-10-31T01:42:30;8.13;;;3.03;;
56999;SDS011;42891;50.006;21.964;2023-10-31T01:46:31;7.55;;;2.50;;
56999;SDS011;42891;50.006;21.964;2023-10-31T01:50:31;3.97;;;2.38;;
56999;SDS011;42891;50.006;21.964;2023-10-31T01:54:32;7.10;;;2.97;;
56999;SDS011;42891;50.006;21.964;2023-10-31T01:58:34;6.00;;;2.35;;
56999;SDS011;42891;50.006;21.964;2023-10-31T02:02:36;4.38;;;2.60;;
56999;SDS011;42891;50.006;21.964;2023-10-31T02:06:40;7.18;;;2.50;;
56999;SDS011;42891;50.006;21.964;2023-10-31T02:10:40;7.75;;;2.70;;
56999;SDS011;42891;50.006;21.964;2023-10-31T02:14:40;7.43;;;2.45;;
56999;SDS011;42891;50.006;21.964;2023-10-31T02:18:41;4.88;;;2.20;;
56999;SDS011;42891;50.006;21.964;2023-10-31T02:22:42;3.92;;;2.05;;
56999;SDS011;42891;50.006;21.964;2023-10-31T02:26:42;4.32;;;2.10;;
56999;SDS011;42891;50.006;21.964;2023-10-31T02:30:43;3.38;;;1.98;;
56999;SDS011;42891;50.006;21.964;2023-10-31T02:34:46;7.10;;;2.13;;
56999;SDS011;42891;50.006;21.964;2023-10-31T02:38:46;4.57;;;2.20;;
56999;SDS011;42891;50.006;21.964;2023-10-31T02:42:47;3.70;;;2.15;;
56999;SDS011;42891;50.006;21.964;2023-10-31T02:46:48;5.65;;;1.90;;
56999;SDS011;42891;50.006;21.964;2023-10-31T02:50:48;3.85;;;1.80;;
56999;SDS011;42891;50.006;21.964;2023-10-31T02:54:48;3.15;;;1.98;;
56999;SDS011;42891;50.006;21.964;2023-10-31T02:58:49;4.63;;;2.17;;
56999;SDS011;42891;50.006;21.964;2023-10-31T03:02:49;3.87;;;1.87;;
56999;SDS011;42891;50.006;21.964;2023-10-31T03:06:49;6.50;;;2.00;;
56999;SDS011;42891;50.006;21.964;2023-10-31T03:10:50;6.35;;;2.00;;
56999;SDS011;42891;50.006;21.964;2023-10-31T03:14:50;4.80;;;2.05;;
56999;SDS011;42891;50.006;21.964;2023-10-31T03:18:51;4.82;;;1.92;;
56999;SDS011;42891;50.006;21.964;2023-10-31T03:22:51;6.43;;;2.20;;
56999;SDS011;42891;50.006;21.964;2023-10-31T03:26:51;4.18;;;2.17;;
56999;SDS011;42891;50.006;21.964;2023-10-31T03:30:52;5.20;;;2.15;;
56999;SDS011;42891;50.006;21.964;2023-10-31T03:34:52;6.80;;;1.90;;
56999;SDS011;42891;50.006;21.964;2023-10-31T03:38:52;8.03;;;2.10;;
56999;SDS011;42891;50.006;21.964;2023-10-31T03:42:53;5.32;;;2.28;;
56999;SDS011;42891;50.006;21.964;2023-10-31T03:46:53;6.15;;;2.08;;
56999;SDS011;42891;50.006;21.964;2023-10-31T03:50:53;7.45;;;2.05;;
56999;SDS011;42891;50.006;21.964;2023-10-31T03:54:54;3.47;;;2.00;;
56999;SDS011;42891;50.006;21.964;2023-10-31T03:58:55;4.35;;;2.00;;
56999;SDS011;42891;50.006;21.964;2023-10-31T04:02:55;4.10;;;2.00;;
56999;SDS011;42891;50.006;21.964;2023-10-31T04:06:56;3.85;;;2.10;;
56999;SDS011;42891;50.006;21.964;2023-10-31T04:10:56;5.07;;;2.38;;
56999;SDS011;42891;50.006;21.964;2023-10-31T04:14:56;5.93;;;2.15;;
56999;SDS011;42891;50.006;21.964;2023-10-31T04:18:57;4.63;;;2.25;;
56999;SDS011;42891;50.006;21.964;2023-10-31T04:22:57;3.67;;;2.30;;
56999;SDS011;42891;50.006;21.964;2023-10-31T04:26:57;3.78;;;1.90;;
56999;SDS011;42891;50.006;21.964;2023-10-31T04:30:57;5.43;;;2.67;;
56999;SDS011;42891;50.006;21.964;2023-10-31T04:34:58;4.82;;;1.92;;
56999;SDS011;42891;50.006;21.964;2023-10-31T04:38:58;7.68;;;2.30;;
56999;SDS011;42891;50.006;21.964;2023-10-31T04:42:59;4.93;;;2.10;;
56999;SDS011;42891;50.006;21.964;2023-10-31T04:46:59;4.13;;;1.98;;
56999;SDS011;42891;50.006;21.964;2023-10-31T04:50:59;4.25;;;2.22;;
56999;SDS011;42891;50.006;21.964;2023-10-31T04:55:00;4.07;;;2.33;;
56999;SDS011;42891;50.006;21.964;2023-10-31T04:59:00;4.93;;;2.50;;
56999;SDS011;42891;50.006;21.964;2023-10-31T05:03:00;3.97;;;2.30;;
56999;SDS011;42891;50.006;21.964;2023-10-31T05:07:02;4.97;;;2.03;;
56999;SDS011;42891;50.006;21.964;2023-10-31T05:11:03;6.07;;;2.15;;
56999;SDS011;42891;50.006;21.964;2023-10-31T05:15:03;8.15;;;2.55;;
56999;SDS011;42891;50.006;21.964;2023-10-31T05:19:04;6.03;;;2.03;;
56999;SDS011;42891;50.006;21.964;2023-10-31T05:23:04;3.90;;;2.10;;
56999;SDS011;42891;50.006;21.964;2023-10-31T05:27:05;8.80;;;2.00;;
56999;SDS011;42891;50.006;21.964;2023-10-31T05:31:07;4.45;;;1.88;;
56999;SDS011;42891;50.006;21.964;2023-10-31T05:35:08;5.47;;;2.00;;
56999;SDS011;42891;50.006;21.964;2023-10-31T05:39:09;3.28;;;1.95;;
56999;SDS011;42891;50.006;21.964;2023-10-31T05:43:09;4.63;;;2.20;;
56999;SDS011;42891;50.006;21.964;2023-10-31T05:47:10;3.22;;;1.90;;
56999;SDS011;42891;50.006;21.964;2023-10-31T05:51:11;4.93;;;2.40;;
56999;SDS011;42891;50.006;21.964;2023-10-31T05:55:15;4.57;;;1.98;;
56999;SDS011;42891;50.006;21.964;2023-10-31T05:59:16;6.03;;;1.70;;
56999;SDS011;42891;50.006;21.964;2023-10-31T06:03:16;8.85;;;3.05;;
56999;SDS011;42891;50.006;21.964;2023-10-31T06:07:17;6.90;;;2.00;;
56999;SDS011;42891;50.006;21.964;2023-10-31T06:11:17;3.47;;;1.75;;
56999;SDS011;42891;50.006;21.964;2023-10-31T06:15:17;3.80;;;2.13;;
56999;SDS011;42891;50.006;21.964;2023-10-31T06:19:17;4.43;;;2.10;;
56999;SDS011;42891;50.006;21.964;2023-10-31T06:23:18;4.80;;;2.10;;
56999;SDS011;42891;50.006;21.964;2023-10-31T06:27:18;5.43;;;2.33;;
56999;SDS011;42891;50.006;21.964;2023-10-31T06:31:19;5.50;;;2.10;;
56999;SDS011;42891;50.006;21.964;2023-10-31T06:35:19;4.20;;;2.15;;
56999;SDS011;42891;50.006;21.964;2023-10-31T06:39:19;4.00;;;2.25;;
56999;SDS011;42891;50.006;21.964;2023-10-31T06:43:20;6.25;;;2.05;;
56999;SDS011;42891;50.006;21.964;2023-10-31T06:47:20;6.85;;;2.30;;
56999;SDS011;42891;50.006;21.964;2023-10-31T06:51:20;9.68;;;2.40;;
56999;SDS011;42891;50.006;21.964;2023-10-31T06:55:21;3.45;;;2.15;;
56999;SDS011;42891;50.006;21.964;2023-10-31T06:59:21;5.32;;;2.72;;
56999;SDS011;42891;50.006;21.964;2023-10-31T07:03:21;3.58;;;1.95;;
56999;SDS011;42891;50.006;21.964;2023-10-31T07:07:22;6.63;;;2.40;;
56999;SDS011;42891;50.006;21.964;2023-10-31T07:11:22;5.60;;;2.20;;
56999;SDS011;42891;50.006;21.964;2023-10-31T07:15:23;3.20;;;2.03;;
56999;SDS011;42891;50.006;21.964;2023-10-31T07:19:23;7.10;;;2.15;;
56999;SDS011;42891;50.006;21.964;2023-10-31T07:23:23;3.93;;;2.10;;
56999;SDS011;42891;50.006;21.964;2023-10-31T07:27:23;3.17;;;1.88;;
56999;SDS011;42891;50.006;21.964;2023-10-31T07:31:24;4.50;;;2.10;;
56999;SDS011;42891;50.006;21.964;2023-10-31T07:35:24;5.60;;;1.90;;
56999;SDS011;42891;50.006;21.964;2023-10-31T07:39:25;4.40;;;2.15;;
56999;SDS011;42891;50.006;21.964;2023-10-31T07:43:25;4.53;;;2.30;;
56999;SDS011;42891;50.006;21.964;2023-10-31T07:47:25;3.45;;;2.03;;
56999;SDS011;42891;50.006;21.964;2023-10-31T07:51:26;7.50;;;2.17;;
56999;SDS011;42891;50.006;21.964;2023-10-31T07:55:26;6.07;;;2.35;;
56999;SDS011;42891;50.006;21.964;2023-10-31T07:59:27;4.65;;;2.08;;
56999;SDS011;42891;50.006;21.964;2023-10-31T08:03:27;4.85;;;2.05;;
56999;SDS011;42891;50.006;21.964;2023-10-31T08:07:27;5.65;;;2.42;;
56999;SDS011;42891;50.006;21.964;2023-10-31T08:11:30;14.02;;;3.42;;
56999;SDS011;42891;50.006;21.964;2023-10-31T08:15:30;4.43;;;2.70;;
56999;SDS011;42891;50.006;21.964;2023-10-31T08:19:31;4.88;;;2.40;;
56999;SDS011;42891;50.006;21.964;2023-10-31T08:23:31;3.95;;;2.55;;
56999;SDS011;42891;50.006;21.964;2023-10-31T08:27:31;6.43;;;2.50;;
56999;SDS011;42891;50.006;21.964;2023-10-31T08:31:32;5.78;;;2.17;;
56999;SDS011;42891;50.006;21.964;2023-10-31T08:35:32;5.40;;;2.43;;
56999;SDS011;42891;50.006;21.964;2023-10-31T08:39:32;3.60;;;2.42;;
56999;SDS011;42891;50.006;21.964;2023-10-31T08:43:33;5.60;;;2.20;;
56999;SDS011;42891;50.006;21.964;2023-10-31T08:47:33;5.43;;;2.15;;
56999;SDS011;42891;50.006;21.964;2023-10-31T08:51:33;6.28;;;2.20;;
56999;SDS011;42891;50.006;21.964;2023-10-31T08:55:34;6.22;;;2.17;;
56999;SDS011;42891;50.006;21.964;2023-10-31T08:59:34;5.38;;;2.10;;
56999;SDS011;42891;50.006;21.964;2023-10-31T09:03:35;5.13;;;2.00;;
56999;SDS011;42891;50.006;21.964;2023-10-31T09:07:35;4.45;;;2.08;;
56999;SDS011;42891;50.006;21.964;2023-10-31T09:11:35;7.33;;;2.53;;
56999;SDS011;42891;50.006;21.964;2023-10-31T09:15:36;6.05;;;2.30;;
56999;SDS011;42891;50.006;21.964;2023-10-31T09:19:36;5.07;;;2.28;;
56999;SDS011;42891;50.006;21.964;2023-10-31T09:23:37;4.10;;;2.08;;
56999;SDS011;42891;50.006;21.964;2023-10-31T09:27:40;4.50;;;2.35;;
56999;SDS011;42891;50.006;21.964;2023-10-31T09:31:41;7.35;;;2.50;;
56999;SDS011;42891;50.006;21.964;2023-10-31T09:35:41;5.00;;;2.20;;
56999;SDS011;42891;50.006;21.964;2023-10-31T09:39:42;9.60;;;2.55;;
56999;SDS011;42891;50.006;21.964;2023-10-31T09:43:42;4.45;;;2.50;;
56999;SDS011;42891;50.006;21.964;2023-10-31T09:47:42;7.78;;;2.25;;
56999;SDS011;42891;50.006;21.964;2023-10-31T09:51:43;6.10;;;2.13;;
56999;SDS011;42891;50.006;21.964;2023-10-31T09:55:43;6.10;;;2.38;;
56999;SDS011;42891;50.006;21.964;2023-10-31T09:59:45;7.65;;;2.05;;
56999;SDS011;42891;50.006;21.964;2023-10-31T10:03:45;5.32;;;2.35;;
56999;SDS011;42891;50.006;21.964;2023-10-31T10:07:46;4.65;;;2.03;;
56999;SDS011;42891;50.006;21.964;2023-10-31T10:11:46;6.35;;;2.20;;
56999;SDS011;42891;50.006;21.964;2023-10-31T10:15:47;6.70;;;2.63;;
56999;SDS011;42891;50.006;21.964;2023-10-31T10:24:09;5.82;;;2.75;;
56999;SDS011;42891;50.006;21.964;2023-10-31T10:28:10;6.85;;;2.65;;
56999;SDS011;42891;50.006;21.964;2023-10-31T10:32:12;6.20;;;2.17;;
56999;SDS011;42891;50.006;21.964;2023-10-31T10:36:13;7.28;;;2.30;;
56999;SDS011;42891;50.006;21.964;2023-10-31T10:40:13;7.65;;;2.28;;
56999;SDS011;42891;50.006;21.964;2023-10-31T10:44:16;7.18;;;2.47;;
56999;SDS011;42891;50.006;21.964;2023-10-31T10:48:16;5.63;;;1.90;;
56999;SDS011;42891;50.006;21.964;2023-10-31T10:52:23;4.13;;;2.00;;
56999;SDS011;42891;50.006;21.964;2023-10-31T10:56:39;5.50;;;2.20;;
56999;SDS011;42891;50.006;21.964;2023-10-31T11:00:46;4.18;;;2.20;;
56999;SDS011;42891;50.006;21.964;2023-10-31T11:04:47;5.80;;;2.17;;
56999;SDS011;42891;50.006;21.964;2023-10-31T11:08:48;4.97;;;2.20;;
56999;SDS011;42891;50.006;21.964;2023-10-31T11:12:52;5.72;;;2.30;;
56999;SDS011;42891;50.006;21.964;2023-10-31T11:16:54;11.68;;;2.60;;
56999;SDS011;42891;50.006;21.964;2023-10-31T11:20:59;5.53;;;2.38;;
56999;SDS011;42891;50.006;21.964;2023-10-31T11:25:00;8.63;;;2.42;;
56999;SDS011;42891;50.006;21.964;2023-10-31T11:29:04;5.43;;;2.53;;
56999;SDS011;42891;50.006;21.964;2023-10-31T11:33:05;8.15;;;2.50;;
56999;SDS011;42891;50.006;21.964;2023-10-31T11:41:28;4.63;;;2.00;;
56999;SDS011;42891;50.006;21.964;2023-10-31T11:45:35;6.70;;;2.08;;
56999;SDS011;42891;50.006;21.964;2023-10-31T11:49:47;7.22;;;2.00;;
56999;SDS011;42891;50.006;21.964;2023-10-31T11:53:48;6.30;;;2.13;;
56999;SDS011;42891;50.006;21.964;2023-10-31T11:57:49;4.75;;;2.10;;
56999;SDS011;42891;50.006;21.964;2023-10-31T12:01:50;7.20;;;2.47;;
56999;SDS011;42891;50.006;21.964;2023-10-31T12:05:56;4.43;;;2.10;;
56999;SDS011;42891;50.006;21.964;2023-10-31T12:10:00;6.35;;;2.28;;
56999;SDS011;42891;50.006;21.964;2023-10-31T12:14:01;5.80;;;2.60;;
56999;SDS011;42891;50.006;21.964;2023-10-31T12:18:05;4.85;;;2.17;;
56999;SDS011;42891;50.006;21.964;2023-10-31T12:22:14;6.63;;;2.90;;
56999;SDS011;42891;50.006;21.964;2023-10-31T12:26:20;6.75;;;2.35;;
56999;SDS011;42891;50.006;21.964;2023-10-31T12:30:21;5.50;;;2.25;;
56999;SDS011;42891;50.006;21.964;2023-10-31T12:34:22;4.55;;;2.05;;
56999;SDS011;42891;50.006;21.964;2023-10-31T12:38:23;3.90;;;2.17;;
56999;SDS011;42891;50.006;21.964;2023-10-31T12:42:24;8.48;;;2.40;;
56999;SDS011;42891;50.006;21.964;2023-10-31T12:46:31;7.20;;;2.35;;
56999;SDS011;42891;50.006;21.964;2023-10-31T12:50:32;6.03;;;2.22;;
56999;SDS011;42891;50.006;21.964;2023-10-31T12:54:34;11.80;;;2.25;;
56999;SDS011;42891;50.006;21.964;2023-10-31T12:58:36;5.10;;;2.30;;
56999;SDS011;42891;50.006;21.964;2023-10-31T13:02:36;6.32;;;2.60;;
56999;SDS011;42891;50.006;21.964;2023-10-31T13:06:37;6.43;;;2.30;;
56999;SDS011;42891;50.006;21.964;2023-10-31T13:10:38;4.63;;;2.03;;
56999;SDS011;42891;50.006;21.964;2023-10-31T13:14:40;6.95;;;1.80;;
56999;SDS011;42891;50.006;21.964;2023-10-31T13:18:41;4.07;;;1.70;;
56999;SDS011;42891;50.006;21.964;2023-10-31T13:22:42;6.90;;;2.30;;
56999;SDS011;42891;50.006;21.964;2023-10-31T13:26:42;7.78;;;2.13;;
56999;SDS011;42891;50.006;21.964;2023-10-31T13:30:44;7.43;;;2.13;;
56999;SDS011;42891;50.006;21.964;2023-10-31T13:34:46;4.78;;;2.20;;
56999;SDS011;42891;50.006;21.964;2023-10-31T13:38:46;6.10;;;2.40;;
56999;SDS011;42891;50.006;21.964;2023-10-31T13:42:50;4.50;;;2.22;;
56999;SDS011;42891;50.006;21.964;2023-10-31T13:46:50;5.45;;;2.30;;
56999;SDS011;42891;50.006;21.964;2023-10-31T13:50:50;6.40;;;2.70;;
56999;SDS011;42891;50.006;21.964;2023-10-31T13:54:51;7.90;;;2.73;;
56999;SDS011;42891;50.006;21.964;2023-10-31T13:58:51;6.87;;;2.37;;
56999;SDS011;42891;50.006;21.964;2023-10-31T14:02:51;7.53;;;2.20;;
56999;SDS011;42891;50.006;21.964;2023-10-31T14:06:52;6.82;;;2.30;;
56999;SDS011;42891;50.006;21.964;2023-10-31T14:10:52;5.35;;;2.25;;
56999;SDS011;42891;50.006;21.964;2023-10-31T14:14:54;4.82;;;2.05;;
56999;SDS011;42891;50.006;21.964;2023-10-31T14:18:55;6.57;;;2.22;;
56999;SDS011;42891;50.006;21.964;2023-10-31T14:22:56;6.38;;;2.40;;
56999;SDS011;42891;50.006;21.964;2023-10-31T14:26:56;5.03;;;2.33;;
56999;SDS011;42891;50.006;21.964;2023-10-31T14:30:59;6.28;;;2.40;;
56999;SDS011;42891;50.006;21.964;2023-10-31T14:34:59;9.07;;;2.20;;
56999;SDS011;42891;50.006;21.964;2023-10-31T14:39:00;5.53;;;2.65;;
56999;SDS011;42891;50.006;21.964;2023-10-31T14:43:00;7.68;;;2.95;;
56999;SDS011;42891;50.006;21.964;2023-10-31T14:47:01;8.27;;;3.03;;
56999;SDS011;42891;50.006;21.964;2023-10-31T14:51:01;7.53;;;2.73;;
56999;SDS011;42891;50.006;21.964;2023-10-31T14:55:02;8.68;;;2.75;;
56999;SDS011;42891;50.006;21.964;2023-10-31T14:59:03;6.97;;;2.97;;
56999;SDS011;42891;50.006;21.964;2023-10-31T15:03:04;7.70;;;2.60;;
56999;SDS011;42891;50.006;21.964;2023-10-31T15:07:04;6.32;;;2.70;;
56999;SDS011;42891;50.006;21.964;2023-10-31T15:11:05;5.55;;;2.88;;
56999;SDS011;42891;50.006;21.964;2023-10-31T15:15:05;7.90;;;3.92;;
56999;SDS011;42891;50.006;21.964;2023-10-31T15:19:06;146.63;;;60.35;;
56999;SDS011;42891;50.006;21.964;2023-10-31T15:23:07;219.90;;;88.35;;
56999;SDS011;42891;50.006;21.964;2023-10-31T15:27:07;94.13;;;41.00;;
56999;SDS011;42891;50.006;21.964;2023-10-31T15:31:09;20.42;;;9.70;;
56999;SDS011;42891;50.006;21.964;2023-10-31T15:35:10;16.88;;;7.10;;
56999;SDS011;42891;50.006;21.964;2023-10-31T15:39:11;15.02;;;7.45;;
56999;SDS011;42891;50.006;21.964;2023-10-31T15:43:12;14.40;;;6.50;;
56999;SDS011;42891;50.006;21.964;2023-10-31T15:47:12;13.02;;;5.63;;
56999;SDS011;42891;50.006;21.964;2023-10-31T15:51:14;13.70;;;6.15;;
56999;SDS011;42891;50.006;21.964;2023-10-31T15:55:15;13.48;;;6.40;;
56999;SDS011;42891;50.006;21.964;2023-10-31T15:59:15;16.83;;;7.07;;
56999;SDS011;42891;50.006;21.964;2023-10-31T16:03:16;17.70;;;7.75;;
56999;SDS011;42891;50.006;21.964;2023-10-31T16:07:17;19.05;;;8.25;;
56999;SDS011;42891;50.006;21.964;2023-10-31T16:11:17;24.95;;;12.82;;
56999;SDS011;42891;50.006;21.964;2023-10-31T16:15:17;23.13;;;10.40;;
56999;SDS011;42891;50.006;21.964;2023-10-31T16:19:18;13.68;;;6.70;;
56999;SDS011;42891;50.006;21.964;2023-10-31T16:23:18;13.10;;;6.30;;
56999;SDS011;42891;50.006;21.964;2023-10-31T16:27:20;11.07;;;5.65;;
56999;SDS011;42891;50.006;21.964;2023-10-31T16:31:21;14.57;;;6.90;;
56999;SDS011;42891;50.006;21.964;2023-10-31T16:35:23;15.75;;;6.13;;
56999;SDS011;42891;50.006;21.964;2023-10-31T16:39:25;11.98;;;6.20;;
56999;SDS011;42891;50.006;21.964;2023-10-31T16:43:25;26.48;;;12.20;;
56999;SDS011;42891;50.006;21.964;2023-10-31T16:47:26;35.13;;;20.15;;
56999;SDS011;42891;50.006;21.964;2023-10-31T16:51:27;78.90;;;45.97;;
56999;SDS011;42891;50.006;21.964;2023-10-31T16:55:28;15.65;;;8.43;;
56999;SDS011;42891;50.006;21.964;2023-10-31T16:59:29;21.53;;;8.67;;
56999;SDS011;42891;50.006;21.964;2023-10-31T17:03:29;9.27;;;5.73;;
56999;SDS011;42891;50.006;21.964;2023-10-31T17:07:29;7.47;;;5.28;;
56999;SDS011;42891;50.006;21.964;2023-10-31T17:11:30;9.87;;;5.80;;
56999;SDS011;42891;50.006;21.964;2023-10-31T17:15:30;9.13;;;5.22;;
56999;SDS011;42891;50.006;21.964;2023-10-31T17:19:30;11.88;;;6.90;;
56999;SDS011;42891;50.006;21.964;2023-10-31T17:23:31;15.93;;;10.50;;
56999;SDS011;42891;50.006;21.964;2023-10-31T17:27:31;12.32;;;9.52;;
56999;SDS011;42891;50.006;21.964;2023-10-31T17:31:31;15.07;;;9.07;;
56999;SDS011;42891;50.006;21.964;2023-10-31T17:35:34;15.68;;;9.52;;
56999;SDS011;42891;50.006;21.964;2023-10-31T17:39:35;16.20;;;11.43;;
56999;SDS011;42891;50.006;21.964;2023-10-31T17:43:35;22.48;;;15.05;;
56999;SDS011;42891;50.006;21.964;2023-10-31T17:47:37;61.42;;;35.03;;
56999;SDS011;42891;50.006;21.964;2023-10-31T17:51:41;21.83;;;13.15;;
56999;SDS011;42891;50.006;21.964;2023-10-31T17:55:42;30.75;;;19.20;;
56999;SDS011;42891;50.006;21.964;2023-10-31T17:59:42;19.13;;;12.52;;
56999;SDS011;42891;50.006;21.964;2023-10-31T18:03:42;21.65;;;14.25;;
56999;SDS011;42891;50.006;21.964;2023-10-31T18:07:43;16.67;;;9.10;;
56999;SDS011;42891;50.006;21.964;2023-10-31T18:11:44;26.85;;;17.58;;
56999;SDS011;42891;50.006;21.964;2023-10-31T18:15:44;17.75;;;10.80;;
56999;SDS011;42891;50.006;21.964;2023-10-31T18:19:45;16.00;;;10.02;;
56999;SDS011;42891;50.006;21.964;2023-10-31T18:23:45;27.80;;;18.17;;
56999;SDS011;42891;50.006;21.964;2023-10-31T18:27:46;29.42;;;15.88;;
56999;SDS011;42891;50.006;21.964;2023-10-31T18:31:47;18.02;;;10.85;;
56999;SDS011;42891;50.006;21.964;2023-10-31T18:35:49;17.95;;;10.02;;
56999;SDS011;42891;50.006;21.964;2023-10-31T18:39:49;15.40;;;9.82;;
56999;SDS011;42891;50.006;21.964;2023-10-31T18:43:49;20.92;;;12.52;;
56999;SDS011;42891;50.006;21.964;2023-10-31T18:47:50;21.20;;;13.30;;
56999;SDS011;42891;50.006;21.964;2023-10-31T18:51:50;24.40;;;15.77;;
56999;SDS011;42891;50.006;21.964;2023-10-31T18:55:51;19.20;;;12.40;;
56999;SDS011;42891;50.006;21.964;2023-10-31T18:59:51;27.70;;;14.30;;
56999;SDS011;42891;50.006;21.964;2023-10-31T19:03:52;23.42;;;13.95;;
56999;SDS011;42891;50.006;21.964;2023-10-31T19:07:52;21.03;;;14.00;;
56999;SDS011;42891;50.006;21.964;2023-10-31T19:11:52;21.83;;;13.95;;
56999;SDS011;42891;50.006;21.964;2023-10-31T19:15:53;13.73;;;8.87;;
56999;SDS011;42891;50.006;21.964;2023-10-31T19:19:54;19.40;;;11.88;;
56999;SDS011;42891;50.006;21.964;2023-10-31T19:23:54;85.13;;;39.83;;
56999;SDS011;42891;50.006;21.964;2023-10-31T19:27:55;126.78;;;55.53;;
56999;SDS011;42891;50.006;21.964;2023-10-31T19:31:55;34.33;;;17.95;;
56999;SDS011;42891;50.006;21.964;2023-10-31T19:35:55;57.60;;;31.10;;
56999;SDS011;42891;50.006;21.964;2023-10-31T19:39:56;50.75;;;27.85;;
56999;SDS011;42891;50.006;21.964;2023-10-31T19:43:56;52.40;;;25.88;;
56999;SDS011;42891;50.006;21.964;2023-10-31T19:47:57;26.27;;;14.60;;
56999;SDS011;42891;50.006;21.964;2023-10-31T19:51:57;20.33;;;10.80;;
56999;SDS011;42891;50.006;21.964;2023-10-31T19:55:58;28.88;;;17.10;;
56999;SDS011;42891;50.006;21.964;2023-10-31T19:59:59;10.98;;;7.85;;
56999;SDS011;42891;50.006;21.964;2023-10-31T20:03:59;21.15;;;12.07;;
56999;SDS011;42891;50.006;21.964;2023-10-31T20:08:00;11.90;;;7.70;;
56999;SDS011;42891;50.006;21.964;2023-10-31T20:12:00;13.63;;;10.02;;
56999;SDS011;42891;50.006;21.964;2023-10-31T20:16:03;10.40;;;7.70;;
56999;SDS011;42891;50.006;21.964;2023-10-31T20:20:06;9.82;;;6.38;;
56999;SDS011;42891;50.006;21.964;2023-10-31T20:24:06;9.35;;;6.20;;
56999;SDS011;42891;50.006;21.964;2023-10-31T20:28:07;8.35;;;5.80;;
56999;SDS011;42891;50.006;21.964;2023-10-31T20:32:07;5.60;;;4.83;;
56999;SDS011;42891;50.006;21.964;2023-10-31T20:36:08;4.93;;;3.50;;
56999;SDS011;42891;50.006;21.964;2023-10-31T20:40:10;4.97;;;2.80;;
56999;SDS011;42891;50.006;21.964;2023-10-31T20:44:10;2.00;;;1.48;;
56999;SDS011;42891;50.006;21.964;2023-10-31T20:48:11;1.27;;;1.08;;
56999;SDS011;42891;50.006;21.964;2023-10-31T20:52:11;1.85;;;1.20;;
56999;SDS011;42891;50.006;21.964;2023-10-31T20:56:12;2.03;;;1.35;;
56999;SDS011;42891;50.006;21.964;2023-10-31T21:00:12;2.88;;;1.38;;
56999;SDS011;42891;50.006;21.964;2023-10-31T21:04:14;1.48;;;1.38;;
56999;SDS011;42891;50.006;21.964;2023-10-31T21:08:14;2.10;;;1.30;;
56999;SDS011;42891;50.006;21.964;2023-10-31T21:12:14;1.55;;;1.15;;
56999;SDS011;42891;50.006;21.964;2023-10-31T21:16:15;2.13;;;1.40;;
56999;SDS011;42891;50.006;21.964;2023-10-31T21:20:15;3.30;;;1.45;;
56999;SDS011;42891;50.006;21.964;2023-10-31T21:24:16;1.90;;;1.30;;
56999;SDS011;42891;50.006;21.964;2023-10-31T21:28:17;3.00;;;1.73;;
56999;SDS011;42891;50.006;21.964;2023-10-31T21:32:17;4.80;;;2.33;;
56999;SDS011;42891;50.006;21.964;2023-10-31T21:36:18;3.08;;;2.17;;
56999;SDS011;42891;50.006;21.964;2023-10-31T21:40:18;2.70;;;2.00;;
56999;SDS011;42891;50.006;21.964;2023-10-31T21:44:18;2.70;;;1.83;;
56999;SDS011;42891;50.006;21.964;2023-10-31T21:48:25;2.15;;;1.63;;
56999;SDS011;42891;50.006;21.964;2023-10-31T21:52:25;2.88;;;2.10;;
56999;SDS011;42891;50.006;21.964;2023-10-31T21:56:26;4.20;;;2.28;;
56999;SDS011;42891;50.006;21.964;2023-10-31T22:00:26;2.63;;;2.33;;
56999;SDS011;42891;50.006;21.964;2023-10-31T22:04:27;2.88;;;2.08;;
56999;SDS011;42891;50.006;21.964;2023-10-31T22:08:27;2.85;;;2.08;;
56999;SDS011;42891;50.006;21.964;2023-10-31T22:12:27;5.35;;;2.70;;
56999;SDS011;42891;50.006;21.964;2023-10-31T22:16:28;3.70;;;2.97;;
56999;SDS011;42891;50.006;21.964;2023-10-31T22:20:31;5.60;;;2.67;;
56999;SDS011;42891;50.006;21.964;2023-10-31T22:24:32;4.60;;;3.65;;
56999;SDS011;42891;50.006;21.964;2023-10-31T22:28:35;5.32;;;4.07;;
56999;SDS011;42891;50.006;21.964;2023-10-31T22:32:36;5.50;;;3.10;;
56999;SDS011;42891;50.006;21.964;2023-10-31T22:36:36;5.70;;;3.35;;
56999;SDS011;42891;50.006;21.964;2023-10-31T22:40:37;4.97;;;3.35;;
56999;SDS011;42891;50.006;21.964;2023-10-31T22:44:37;3.88;;;3.10;;
56999;SDS011;42891;50.006;21.964;2023-10-31T22:48:37;4.15;;;2.88;;
56999;SDS011;42891;50.006;21.964;2023-10-31T22:52:38;3.95;;;2.80;;
56999;SDS011;42891;50.006;21.964;2023-10-31T22:56:38;3.40;;;2.60;;
56999;SDS011;42891;50.006;21.964;2023-10-31T23:00:38;3.03;;;2.55;;
56999;SDS011;42891;50.006;21.964;2023-10-31T23:04:39;2.53;;;2.20;;
56999;SDS011;42891;50.006;21.964;2023-10-31T23:08:40;3.17;;;2.10;;
56999;SDS011;42891;50.006;21.964;2023-10-31T23:12:41;1.90;;;1.60;;
56999;SDS011;42891;50.006;21.964;2023-10-31T23:16:41;2.10;;;1.70;;
56999;SDS011;42891;50.006;21.964;2023-10-31T23:20:41;5.10;;;1.63;;
56999;SDS011;42891;50.006;21.964;2023-10-31T23:24:42;1.83;;;1.50;;
56999;SDS011;42891;50.006;21.964;2023-10-31T23:28:42;2.58;;;1.63;;
56999;SDS011;42891;50.006;21.964;2023-10-31T23:32:42;2.50;;;1.60;;
56999;SDS011;42891;50.006;21.964;2023-10-31T23:36:43;1.60;;;1.20;;
56999;SDS011;42891;50.006;21.964;2023-10-31T23:40:43;2.20;;;1.77;;
56999;SDS011;42891;50.006;21.964;2023-10-31T23:44:46;2.03;;;1.70;;
56999;SDS011;42891;50.006;21.964;2023-10-31T23:48:46;1.67;;;1.35;;
56999;SDS011;42891;50.006;21.964;2023-10-31T23:52:46;2.95;;;1.55;;